.
WxDataArchive / Data Records for 2014-08-07
2014-08-06 August 2014 2014-08-08

Data Records for Thursday, 07 August 2014

Time	Temp	Chill	HIndex	Humid	Dewpt	 Wind 	HiWind	WindDir	Rain 	Barom
-----	----	-----	------	-----	-----	------	------	-------	-----	-----
00:00	65.3	65.3	65.3	81	59.3	0	0	---	0.00	30.048 
00:05	65.0	65.0	65.0	81	59.0	0	0	---	0.00	30.048 
00:10	64.8	64.8	64.8	82	59.2	0	0	---	0.00	30.048 
00:15	64.7	64.7	64.7	83	59.4	0	0	---	0.00	30.050 
00:20	64.5	64.5	64.5	83	59.2	0	0	---	0.00	30.050 
00:25	64.3	64.3	64.3	84	59.4	0	0	---	0.00	30.050 
00:30	64.2	64.2	64.2	84	59.3	0	0	---	0.00	30.050 
00:35	63.9	63.9	63.9	84	59.0	0	0	---	0.00	30.050 
00:40	63.7	63.7	63.7	84	58.8	0	0	---	0.00	30.050 
00:45	63.5	63.5	63.5	85	58.9	0	0	---	0.00	30.051 
00:50	63.4	63.4	63.4	85	58.8	0	0	---	0.00	30.051 
00:55	63.2	63.2	63.2	85	58.6	0	0	---	0.00	30.051 
01:00	63.1	63.1	63.1	86	58.8	0	0	---	0.00	30.053 
01:05	62.9	62.9	62.9	86	58.6	0	0	---	0.00	30.053 
01:10	62.7	62.7	62.7	86	58.4	0	0	---	0.00	30.053 
01:15	62.6	62.6	62.6	87	58.7	0	0	---	0.00	30.051 
01:20	62.4	62.4	62.4	87	58.5	0	0	---	0.00	30.051 
01:25	62.3	62.3	62.3	87	58.4	0	0	---	0.00	30.051 
01:30	62.1	62.1	62.1	88	58.5	0	0	---	0.00	30.053 
01:35	62.1	62.1	62.1	88	58.5	0	0	---	0.00	30.053 
01:40	62.0	62.0	62.0	88	58.4	0	0	---	0.00	30.053 
01:45	61.8	61.8	61.8	88	58.2	0	0	---	0.00	30.053 
01:50	61.6	61.6	61.6	88	58.0	0	0	---	0.00	30.053 
01:55	61.5	61.5	61.5	89	58.2	0	0	---	0.00	30.053 
02:00	61.3	61.3	61.3	89	58.0	0	0	---	0.00	30.052 
02:05	61.3	61.3	61.3	89	58.0	0	0	---	0.00	30.052 
02:10	61.2	61.2	61.2	89	57.9	0	0	---	0.00	30.052 
02:15	61.0	61.0	61.0	89	57.7	0	0	---	0.00	30.051 
02:20	60.9	60.9	60.9	89	57.6	0	0	---	0.00	30.051 
02:25	60.7	60.7	60.7	89	57.4	0	0	---	0.00	30.051 
02:30	60.5	60.5	60.5	90	57.5	0	0	---	0.00	30.047 
02:35	60.5	60.5	60.5	90	57.5	0	0	---	0.00	30.047 
02:40	60.4	60.4	60.4	90	57.4	0	0	---	0.00	30.047 
02:45	60.2	60.2	60.2	91	57.6	0	0	---	0.00	30.047 
02:50	60.2	60.2	60.2	91	57.6	0	0	---	0.00	30.047 
02:55	60.1	60.1	60.1	91	57.5	0	0	---	0.00	30.047 
03:00	59.9	59.9	59.9	91	57.3	0	0	---	0.00	30.048 
03:05	59.9	59.9	59.9	91	57.3	0	0	---	0.00	30.048 
03:10	59.8	59.8	59.8	91	57.2	0	0	---	0.00	30.048 
03:15	59.6	59.6	59.6	91	57.0	0	0	---	0.00	30.055 
03:20	59.5	59.5	59.5	92	57.2	0	0	---	0.00	30.055 
03:25	59.5	59.5	59.5	92	57.2	0	0	---	0.00	30.055 
03:30	59.3	59.3	59.3	92	57.0	0	0	---	0.00	30.054 
03:35	59.2	59.2	59.2	92	56.9	0	0	---	0.00	30.054 
03:40	59.0	59.0	59.0	92	56.7	0	0	---	0.00	30.054 
03:45	58.9	58.9	58.9	92	56.6	0	0	---	0.00	30.051 
03:50	58.9	58.9	58.9	92	56.6	0	0	---	0.00	30.051 
03:55	58.9	58.9	58.9	92	56.6	0	0	---	0.00	30.051 
04:00	58.9	58.9	58.9	92	56.6	0	0	---	0.00	30.054 
04:05	58.7	58.7	58.7	92	56.4	0	0	---	0.00	30.054 
04:10	58.6	58.6	58.6	92	56.3	0	0	---	0.00	30.054 
04:15	58.4	58.4	58.4	92	56.1	0	0	---	0.00	30.055 
04:20	58.4	58.4	58.4	92	56.1	0	0	---	0.00	30.055 
04:25	58.3	58.3	58.3	92	56.0	0	0	---	0.00	30.055 
04:30	58.1	58.1	58.1	93	56.1	0	0	---	0.00	30.055 
04:35	58.0	58.0	58.0	93	56.0	0	0	---	0.00	30.055 
04:40	58.0	58.0	58.0	93	56.0	0	0	---	0.00	30.055 
04:45	57.8	57.8	57.8	93	55.8	0	0	---	0.00	30.055 
04:50	57.6	57.6	57.6	93	55.6	0	0	---	0.00	30.055 
04:55	57.6	57.6	57.6	93	55.6	0	0	---	0.00	30.055 
05:00	57.5	57.5	57.5	93	55.5	0	0	---	0.00	30.057 
05:05	57.5	57.5	57.5	93	55.5	0	0	---	0.00	30.057 
05:10	57.3	57.3	57.3	93	55.3	0	0	---	0.00	30.057 
05:15	57.3	57.3	57.3	93	55.3	0	0	---	0.00	30.056 
05:20	57.2	57.2	57.2	93	55.2	0	0	---	0.00	30.056 
05:25	57.0	57.0	57.0	93	55.0	0	0	---	0.00	30.056 
05:30	57.0	57.0	57.0	93	55.0	0	0	---	0.00	30.055 
05:35	57.0	57.0	57.0	93	55.0	0	0	---	0.00	30.055 
05:40	56.9	56.9	56.9	93	54.9	0	0	---	0.00	30.055 
05:45	56.9	56.9	56.9	94	55.2	0	0	---	0.00	30.054 
05:50	56.7	56.7	56.7	94	55.0	0	0	---	0.00	30.054 
05:55	56.7	56.7	56.7	94	55.0	0	0	---	0.00	30.054 
06:00	56.7	56.7	56.7	94	55.0	0	0	---	0.00	30.056 
06:05	56.7	56.7	56.7	94	55.0	0	0	---	0.00	30.056 
06:10	56.6	56.6	56.6	94	54.9	0	0	---	0.00	30.056 
06:15	56.6	56.6	56.6	94	54.9	0	0	---	0.00	30.059 
06:20	56.5	56.5	56.5	94	54.8	0	0	---	0.00	30.059 
06:25	56.5	56.5	56.5	94	54.8	0	0	---	0.00	30.059 
06:30	56.5	56.5	56.5	94	54.8	0	0	---	0.00	30.069 
06:35	56.3	56.3	56.3	94	54.6	0	0	---	0.00	30.069 
06:40	56.3	56.3	56.3	94	54.6	0	0	---	0.00	30.069 
06:45	56.3	56.3	56.3	94	54.6	0	0	---	0.00	30.072 
06:50	56.3	56.3	56.3	94	54.6	0	0	---	0.00	30.072 
06:55	56.3	56.3	56.3	94	54.6	0	0	---	0.00	30.072 
07:00	56.3	56.3	56.3	94	54.6	0	0	---	0.00	30.072 
07:05	56.5	56.5	56.5	94	54.8	0	0	---	0.00	30.072 
07:10	56.5	56.5	56.5	95	55.1	0	0	---	0.00	30.072 
07:15	56.6	56.6	56.6	95	55.2	0	0	---	0.00	30.077 
07:20	56.6	56.6	56.6	95	55.2	0	0	---	0.00	30.077 
07:25	56.9	56.9	56.9	95	55.5	0	0	---	0.00	30.077 
07:30	57.2	57.2	57.2	95	55.8	0	0	---	0.00	30.081 
07:35	57.5	57.5	57.5	95	56.1	0	0	---	0.00	30.081 
07:40	58.0	58.0	58.0	95	56.6	0	0	---	0.00	30.081 
07:45	58.4	58.4	58.4	95	57.0	0	0	---	0.00	30.084 
07:50	58.9	58.9	58.9	95	57.5	0	0	---	0.00	30.084 
07:55	59.3	59.3	59.3	96	58.2	0	0	---	0.00	30.084 
08:00	60.1	60.1	60.1	96	59.0	0	0	---	0.00	30.082 
08:05	60.7	60.7	60.7	96	59.6	0	0	---	0.00	30.082 
08:10	61.5	61.5	61.5	96	60.3	0	0	---	0.00	30.082 
08:15	61.6	61.6	61.6	95	60.2	0	1	90	0.00	30.086 
08:20	62.1	62.1	62.1	94	60.3	0	2	90	0.00	30.086 
08:25	62.9	62.9	62.9	92	60.5	0	2	90	0.00	30.086 
08:30	64.0	64.0	64.0	91	61.3	0	0	---	0.00	30.084 
08:35	64.8	64.8	64.8	88	61.2	0	1	90	0.00	30.084 
08:40	65.6	65.6	65.6	85	61.0	0	1	90	0.00	30.084 
08:45	66.4	66.4	66.4	82	60.7	0	1	90	0.00	30.085 
08:50	67.3	67.3	67.3	82	61.6	0	0	---	0.00	30.085 
08:55	68.1	68.1	68.1	80	61.7	0	1	90	0.00	30.085 
09:00	68.6	68.6	68.6	76	60.7	0	1	90	0.00	30.090 
09:05	69.1	69.1	69.1	75	60.8	0	2	90	0.00	30.090 
09:10	69.4	69.4	69.4	73	60.4	0	1	90	0.00	30.090 
09:15	69.6	69.6	69.6	72	60.2	0	2	90	0.00	30.093 
09:20	69.8	69.8	69.8	72	60.4	0	2	90	0.00	30.093 
09:25	70.4	70.4	70.4	70	60.1	0	1	90	0.00	30.093 
09:30	71.1	71.1	71.1	69	60.4	0	2	90	0.00	30.093 
09:35	71.5	71.5	71.5	68	60.4	1	3	90	0.00	30.093 
09:40	71.5	71.5	71.5	68	60.4	0	2	90	0.00	30.093 
09:45	71.5	71.5	71.5	68	60.4	0	1	90	0.00	30.093 
09:50	71.8	71.8	71.8	67	60.2	0	3	90	0.00	30.093 
09:55	72.0	72.0	72.0	68	60.8	1	4	90	0.00	30.093 
10:00	72.3	72.3	72.3	66	60.3	0	2	90	0.00	30.092 
10:05	72.5	72.5	72.5	66	60.5	1	2	90	0.00	30.092 
10:10	72.7	72.7	72.7	69	61.9	0	2	90	0.00	30.092 
10:15	72.7	72.7	72.7	65	60.2	1	4	90	0.00	30.088 
10:20	73.0	73.0	73.0	65	60.5	0	1	90	0.00	30.088 
10:25	73.3	73.3	73.3	65	60.8	0	2	90	0.00	30.088 
10:30	73.7	73.7	73.7	61	59.4	0	2	90	0.00	30.088 
10:35	74.0	74.0	74.0	57	57.8	1	3	90	0.00	30.088 
10:40	74.4	74.4	74.4	57	58.2	0	2	90	0.00	30.088 
10:45	74.9	74.9	74.9	58	59.1	0	1	90	0.00	30.093 
10:50	75.6	75.6	77.8	56	58.8	0	2	90	0.00	30.093 
10:55	75.4	75.4	77.7	55	58.1	1	3	90	0.00	30.093 
11:00	75.3	75.3	77.6	58	59.5	1	4	90	0.00	30.094 
11:05	75.6	75.6	77.8	56	58.8	0	1	90	0.00	30.094 
11:10	76.1	76.1	78.1	53	57.7	0	1	90	0.00	30.094 
11:15	76.7	76.7	78.5	55	59.3	0	1	90	0.00	30.096 
11:20	77.2	77.2	78.8	54	59.2	0	1	90	0.00	30.096 
11:25	77.2	77.2	78.8	52	58.2	1	3	90	0.00	30.096 
11:30	77.4	77.4	78.8	50	57.3	0	1	90	0.00	30.096 
11:35	77.6	77.6	79.0	51	58.0	0	1	90	0.00	30.096 
11:40	77.7	77.7	79.0	49	57.0	0	2	90	0.00	30.096 
11:45	77.7	77.7	79.0	50	57.6	1	4	90	0.00	30.096 
11:50	77.9	77.9	79.2	50	57.7	0	1	90	0.00	30.096 
11:55	78.1	78.1	79.2	47	56.2	0	2	90	0.00	30.096 
12:00	77.9	77.9	79.1	48	56.6	1	6	90	0.00	30.099 
12:05	77.4	77.4	78.7	47	55.6	2	5	112	0.00	30.099 
12:10	77.4	77.4	78.9	52	58.4	0	3	112	0.00	30.099 
12:15	78.1	78.1	79.2	48	56.8	0	1	112	0.00	30.097 
12:20	78.5	78.5	79.4	46	56.0	1	5	112	0.00	30.097 
12:25	77.9	77.9	79.0	46	55.4	1	5	112	0.00	30.097 
12:30	77.7	77.7	78.9	47	55.8	1	3	90	0.00	30.097 
12:35	77.9	77.9	79.1	48	56.6	0	2	90	0.00	30.097 
12:40	78.3	78.3	79.3	48	57.0	1	4	90	0.00	30.097 
12:45	77.9	77.9	79.0	46	55.4	2	6	90	0.00	30.092 
12:50	77.6	77.6	78.8	45	54.6	2	6	90	0.00	30.092 
12:55	77.7	77.7	79.0	49	57.0	1	4	90	0.00	30.092 
13:00	78.3	78.3	79.3	47	56.4	1	4	90	0.00	30.088 
13:05	78.1	78.1	79.0	45	55.0	2	5	90	0.00	30.088 
13:10	77.7	77.7	78.8	45	54.6	2	5	68	0.00	30.088 
13:15	77.6	77.6	78.8	45	54.6	2	4	90	0.00	30.085 
13:20	77.9	77.9	79.1	48	56.6	1	3	90	0.00	30.085 
13:25	78.1	78.1	79.2	48	56.8	2	4	90	0.00	30.085 
13:30	78.3	78.3	79.2	46	55.8	1	3	68	0.00	30.084 
13:35	78.5	78.5	79.2	43	54.1	1	4	68	0.00	30.084 
13:40	78.3	78.3	79.2	45	55.2	2	4	90	0.00	30.084 
13:45	78.3	78.3	79.3	47	56.4	1	2	90	0.00	30.083 
13:50	78.3	78.3	79.2	46	55.8	1	4	90	0.00	30.083 
13:55	78.6	78.6	79.4	45	55.5	1	4	135	0.00	30.083 
14:00	78.3	78.3	79.1	44	54.6	2	5	90	0.00	30.080 
14:05	77.9	77.9	78.9	44	54.2	2	5	112	0.00	30.080 
14:10	77.9	77.9	79.0	46	55.4	1	4	90	0.00	30.080 
14:15	77.7	77.7	79.0	49	57.0	1	3	90	0.00	30.080 
14:20	78.1	78.1	79.2	47	56.2	0	2	90	0.00	30.080 
14:25	78.6	78.6	79.4	46	56.1	1	4	90	0.00	30.080 
14:30	79.0	79.0	79.7	46	56.4	1	3	112	0.00	30.072 
14:35	79.2	79.2	79.8	46	56.6	0	2	112	0.00	30.072 
14:40	79.4	79.4	79.9	45	56.2	0	3	112	0.00	30.072 
14:45	79.2	79.2	79.8	46	56.6	1	4	112	0.00	30.068 
14:50	79.0	79.0	79.6	45	55.8	0	3	112	0.00	30.068 
14:55	79.2	79.2	79.8	46	56.6	0	3	112	0.00	30.068 
15:00	79.4	79.4	80.1	48	58.0	0	3	135	0.00	30.067 
15:05	79.2	79.2	79.8	46	56.6	1	3	135	0.00	30.067 
15:10	79.4	79.4	80.0	46	56.8	0	2	135	0.00	30.067 
15:15	79.4	79.4	79.9	45	56.2	1	3	135	0.00	30.062 
15:20	79.4	79.4	79.8	44	55.6	1	3	112	0.00	30.062 
15:25	79.4	79.4	80.0	46	56.8	1	4	112	0.00	30.062 
15:30	79.4	79.4	80.1	47	57.4	1	3	112	0.00	30.057 
15:35	79.0	79.0	79.7	46	56.4	2	5	68	0.00	30.057 
15:40	78.8	78.8	79.6	46	56.2	1	4	68	0.00	30.057 
15:45	78.8	78.8	79.6	47	56.8	1	4	68	0.00	30.055 
15:50	79.2	79.2	79.9	47	57.2	0	2	68	0.00	30.055 
15:55	79.2	79.2	79.8	45	56.0	0	3	68	0.00	30.055 
16:00	79.4	79.4	79.8	44	55.6	0	3	68	0.00	30.054 
16:05	79.6	79.6	80.2	47	57.6	0	1	68	0.00	30.054 
16:10	79.8	79.8	80.3	46	57.2	0	2	68	0.00	30.054 
16:15	79.9	79.9	80.3	45	56.6	0	1	68	0.00	30.051 
16:20	80.1	80.1	80.4	45	56.8	0	1	68	0.00	30.051 
16:25	80.1	80.1	80.4	45	56.8	0	3	68	0.00	30.051 
16:30	80.1	80.1	80.3	44	56.2	0	3	68	0.00	30.048 
16:35	79.8	79.8	80.1	44	55.9	1	3	68	0.00	30.048 
16:40	79.6	79.6	80.0	45	56.4	0	3	90	0.00	30.048 
16:45	79.4	79.4	79.9	45	56.2	0	1	90	0.00	30.051 
16:50	79.2	79.2	79.8	46	56.6	0	2	90	0.00	30.051 
16:55	79.2	79.2	79.8	45	56.0	0	1	90	0.00	30.051 
17:00	79.0	79.0	79.7	46	56.4	1	3	90	0.00	30.045 
17:05	79.2	79.2	79.8	45	56.0	0	2	90	0.00	30.045 
17:10	79.4	79.4	79.8	44	55.6	0	1	90	0.00	30.045 
17:15	79.2	79.2	79.8	45	56.0	1	4	90	0.00	30.044 
17:20	79.0	79.0	79.7	46	56.4	0	1	90	0.00	30.044 
17:25	78.8	78.8	79.4	44	55.0	1	5	90	0.00	30.044 
17:30	78.5	78.5	79.4	47	56.6	0	1	90	0.00	30.039 
17:35	78.5	78.5	79.4	47	56.6	0	2	90	0.00	30.039 
17:40	78.5	78.5	79.5	48	57.2	0	1	90	0.00	30.039 
17:45	78.3	78.3	79.3	47	56.4	0	1	90	0.00	30.039 
17:50	78.1	78.1	79.2	47	56.2	0	1	90	0.00	30.039 
17:55	78.1	78.1	79.3	49	57.4	0	1	90	0.00	30.039 
18:00	77.9	77.9	79.0	47	56.0	0	1	90	0.00	30.039 
18:05	77.9	77.9	79.2	50	57.7	0	1	90	0.00	30.039 
18:10	77.7	77.7	79.0	50	57.6	0	1	90	0.00	30.039 
18:15	77.6	77.6	79.0	50	57.5	0	1	90	0.00	30.037 
18:20	77.4	77.4	78.8	50	57.3	0	2	90	0.00	30.037 
18:25	77.2	77.2	78.7	49	56.5	0	1	90	0.00	30.037 
18:30	77.2	77.2	78.7	50	57.1	0	2	90	0.00	30.031 
18:35	77.0	77.0	78.6	50	56.9	0	1	90	0.00	30.031 
18:40	76.8	76.8	78.5	50	56.7	0	1	90	0.00	30.031 
18:45	76.8	76.8	78.5	50	56.7	0	1	90	0.00	30.028 
18:50	76.7	76.7	78.4	51	57.2	0	1	90	0.00	30.028 
18:55	76.7	76.7	78.4	51	57.2	0	1	90	0.00	30.028 
19:00	76.5	76.5	78.3	51	57.0	0	0	---	0.00	30.027 
19:05	76.3	76.3	78.2	52	57.4	0	1	90	0.00	30.027 
19:10	76.1	76.1	78.1	50	56.1	0	1	90	0.00	30.027 
19:15	76.0	76.0	78.1	52	57.1	0	0	---	0.00	30.022 
19:20	76.0	76.0	78.1	53	57.6	0	0	---	0.00	30.022 
19:25	75.6	75.6	77.9	54	57.8	0	1	90	0.00	30.022 
19:30	75.4	75.4	77.8	54	57.6	0	0	---	0.00	30.023 
19:35	75.3	75.3	77.7	55	58.0	0	1	90	0.00	30.023 
19:40	75.1	75.1	77.6	54	57.3	0	0	---	0.00	30.023 
19:45	74.9	74.9	74.9	55	57.6	0	0	---	0.00	30.023 
19:50	74.9	74.9	74.9	56	58.1	0	1	90	0.00	30.023 
19:55	74.7	74.7	74.7	56	57.9	0	1	90	0.00	30.023 
20:00	74.6	74.6	74.6	57	58.3	0	0	---	0.00	30.024 
20:05	74.4	74.4	74.4	57	58.2	0	0	---	0.00	30.024 
20:10	74.2	74.2	74.2	58	58.5	0	0	---	0.00	30.024 
20:15	73.9	73.9	73.9	58	58.2	0	0	---	0.00	30.016 
20:20	73.7	73.7	73.7	59	58.5	0	0	---	0.00	30.016 
20:25	73.3	73.3	73.3	59	58.1	0	0	---	0.00	30.016 
20:30	73.2	73.2	73.2	60	58.5	0	0	---	0.00	30.013 
20:35	72.8	72.8	72.8	61	58.6	0	0	---	0.00	30.013 
20:40	72.5	72.5	72.5	62	58.7	0	0	---	0.00	30.013 
20:45	72.1	72.1	72.1	63	58.8	0	0	---	0.00	30.014 
20:50	71.8	71.8	71.8	63	58.5	0	0	---	0.00	30.014 
20:55	71.5	71.5	71.5	65	59.1	0	0	---	0.00	30.014 
21:00	70.9	70.9	70.9	66	59.0	0	0	---	0.00	30.018 
21:05	70.6	70.6	70.6	66	58.7	0	0	---	0.00	30.018 
21:10	70.3	70.3	70.3	68	59.2	0	0	---	0.00	30.018 
21:15	69.9	69.9	69.9	69	59.3	0	0	---	0.00	30.016 
21:20	69.6	69.6	69.6	70	59.4	0	0	---	0.00	30.016 
21:25	69.3	69.3	69.3	71	59.5	0	0	---	0.00	30.016 
21:30	68.9	68.9	68.9	71	59.1	0	0	---	0.00	30.019 
21:35	68.6	68.6	68.6	72	59.2	0	0	---	0.00	30.019 
21:40	68.3	68.3	68.3	73	59.3	0	0	---	0.00	30.019 
21:45	68.1	68.1	68.1	74	59.5	0	0	---	0.00	30.021 
21:50	67.9	67.9	67.9	75	59.7	0	0	---	0.00	30.021 
21:55	67.8	67.8	67.8	77	60.3	0	0	---	0.00	30.021 
22:00	67.6	67.6	67.6	78	60.5	0	0	---	0.00	30.029 
22:05	67.3	67.3	67.3	79	60.6	0	0	---	0.00	30.029 
22:10	66.9	66.9	66.9	78	59.8	0	0	---	0.00	30.029 
22:15	66.8	66.8	66.8	79	60.1	0	0	---	0.00	30.032 
22:20	66.6	66.6	66.6	79	59.9	0	0	---	0.00	30.032 
22:25	66.4	66.4	66.4	79	59.7	0	0	---	0.00	30.032 
22:30	66.3	66.3	66.3	80	59.9	0	0	---	0.00	30.036 
22:35	66.1	66.1	66.1	81	60.1	0	0	---	0.00	30.036 
22:40	66.0	66.0	66.0	81	60.0	0	0	---	0.00	30.036 
22:45	65.8	65.8	65.8	82	60.1	0	0	---	0.00	30.042 
22:50	65.6	65.6	65.6	82	59.9	0	0	---	0.00	30.042 
22:55	65.5	65.5	65.5	83	60.2	0	0	---	0.00	30.042 
23:00	65.2	65.2	65.2	83	59.9	0	0	---	0.00	30.042 
23:05	65.0	65.0	65.0	84	60.0	0	0	---	0.00	30.042 
23:10	64.8	64.8	64.8	84	59.8	0	0	---	0.00	30.042 
23:15	64.7	64.7	64.7	85	60.1	0	0	---	0.00	30.038 
23:20	64.5	64.5	64.5	85	59.9	0	0	---	0.00	30.038 
23:25	64.5	64.5	64.5	86	60.2	0	0	---	0.00	30.038 
23:30	64.3	64.3	64.3	86	60.0	0	0	---	0.00	30.039 
23:35	64.2	64.2	64.2	86	59.9	0	0	---	0.00	30.039 
23:40	64.0	64.0	64.0	86	59.7	0	0	---	0.00	30.039 
23:45	63.9	63.9	63.9	87	59.9	0	0	---	0.00	30.036 
23:50	63.7	63.7	63.7	87	59.8	0	0	---	0.00	30.036 
23:55	63.5	63.5	63.5	87	59.6	0	0	---	0.00	30.036 

CoCoRaHS
IN-AL-39
A2 Web Hosting
Creative Commons License
GoDaddy
search engine by freefind advanced

loaded 2018-11-17 11:56:23 • last modified 2010-11-18 10:43:29
Privacy PolicyDisclaimer
• wx.awcolley.com is powered by PmWiki v.2002016 •
• all content (unless otherwise noted) © 2018 A W Colley